Terminal Aerodrome Forecast
Issued by NWS

Current Version | Previous Version | Text Only | Print | Product List | Glossary Off
Versions: 1 2 3 4 5 6 7 8 9 10 11 12 13 14 15 16 17 18 19 20 21 22 23 24 25 26 27

000
FTUS41 KILN 300542
TAFLUK
TAF
KLUK 300542Z 3006/0106 18006KT P6SM BKN090 OVC150
     FM300800 16003KT P6SM BKN040 OVC090
      TEMPO 3009/3012 P6SM -SHRA BKN020
     FM301600 20006KT P6SM VCSH BKN025
     FM301800 24010G18KT P6SM BKN035
     FM302300 25009KT P6SM SCT040
     FM010300 26008KT P6SM BKN040=

USA.gov is the U.S. government's official web portal to all federal, state and local government web resources and services.